Etusivu
METAR-TAF:

METAR-TAF

Lentoasemat :

L.O. Simenstad Municipal Airport

Osceola, Wisconsin, Yhdysvallat

Leveyspiiri: 45-18-31N, Pituuspiiri: 092-41-24W, korkeus merenpinnasta: 275 m

Tämänhetkinen sää

Tämä raportti tehtiin 27 minuuttia sitten, kello 02.35 UTC
tyyntä
Lämpötila 0°C
Kosteus 93%
Ilmanpaine 1007 hPa
Näkyvyys: 16.1 km
Hajanaisia pilviä 2000 ft:n korkeudessa
Pilvistä 9000 ft:n korkeudessa

METAR: KOEO 190235Z AUTO 00000KT 10SM SCT020 OVC090 00/M01 A2973 RMK AO2 T00001013

Aika: 21:02 (03:02 UTC)


TAF: puuttuu

Säähavainnot ja -ennusteet yli 4000 lentoasemalta (METAR- ja TAF-raportit).

Käytössä olevat sääasemat on merkitty karttaan keltaisilla ja punaisilla pisteillä.

Aseta hiiri pisteen päälle nähdäksesi sääaseman nimen.

Klikkaa sitten nähdäksesi säähavainnot ja -ennusteet.

Kartan vaihtaminen: klikkaa mustalla rastilla varustettuja vihreitä pisteitä, niin voit zoomata sisään; viivalla varustettua vihreää pistettä, niin voit zoomata ulos tai vihreitä nuolia, niin pääset viereisille kartoille.


METAR-TAF: